createdAt,value
2022-12-25T09:57:28.411Z,34.13
2022-12-25T09:59:56.868Z,34.25
2022-12-25T10:03:05.734Z,32.17
2022-12-25T10:06:09.738Z,28.13
2022-12-25T10:08:55.139Z,24.70
2022-12-25T10:11:50.512Z,29.00
2022-12-25T10:14:46.092Z,21.90
2022-12-25T10:17:56.603Z,24.35
2022-12-25T10:20:30.031Z,24.85
2022-12-25T10:23:01.840Z,30.67
2022-12-25T10:25:31.926Z,20.75
2022-12-25T10:28:31.945Z,35.17
2022-12-25T10:31:16.149Z,30.70
2022-12-25T10:33:44.230Z,42.88
2022-12-25T10:36:11.956Z,58.45
2022-12-25T10:38:39.635Z,39.70
2022-12-25T10:41:21.391Z,23.30
2022-12-25T10:43:57.006Z,13.00
2022-12-25T10:46:28.724Z,13.32
2022-12-25T10:49:02.939Z,17.05
2022-12-25T10:51:34.852Z,11.25
2022-12-25T10:54:19.358Z,20.63
2022-12-25T10:57:00.328Z,12.35
2022-12-25T10:59:35.707Z,38.58
2022-12-25T11:02:39.460Z,42.63
2022-12-25T11:05:23.446Z,18.88
2022-12-25T11:07:54.373Z,26.05
2022-12-25T11:10:29.080Z,48.92
2022-12-25T11:12:58.136Z,129.35
2022-12-25T11:15:42.690Z,31.65
2022-12-25T11:18:27.807Z,13.88
2022-12-25T11:21:16.060Z,5.60
2022-12-25T11:27:06.805Z,3.90
2022-12-25T11:29:50.655Z,5.85
2022-12-25T11:32:30.015Z,3.13
2022-12-25T11:34:59.281Z,11.68
2022-12-25T11:37:46.480Z,9.25
2022-12-25T11:40:19.510Z,17.75
2022-12-25T11:43:10.985Z,12.20
2022-12-25T11:45:55.048Z,7.60
2022-12-25T11:48:33.980Z,5.30
2022-12-25T11:51:05.798Z,5.82
2022-12-25T11:53:47.955Z,5.10
2022-12-25T11:56:21.817Z,5.47
2022-12-25T11:59:11.477Z,7.72
2022-12-25T12:01:55.018Z,4.88
2022-12-25T12:04:42.334Z,4.20
2022-12-25T12:07:29.370Z,5.95
2022-12-25T12:10:22.646Z,3.78
2022-12-25T12:13:11.137Z,7.40
2022-12-25T12:15:50.477Z,5.10
2022-12-25T12:18:25.663Z,10.32
2022-12-25T12:21:17.877Z,19.45
2022-12-25T12:24:05.420Z,28.10
2022-12-25T12:26:38.245Z,46.72
2022-12-25T12:29:21.946Z,25.52
2022-12-25T12:31:51.633Z,8.57
2022-12-25T12:34:23.663Z,118.85
2022-12-25T12:37:22.903Z,36.55
2022-12-25T12:39:55.149Z,104.55
2022-12-25T12:42:28.743Z,109.82
2022-12-25T12:45:07.353Z,55.65
2022-12-25T12:47:44.749Z,23.90
2022-12-25T12:50:29.667Z,12.38
2022-12-25T12:53:02.812Z,14.90
2022-12-25T12:55:34.833Z,8.30
2022-12-25T12:58:06.454Z,45.17
2022-12-25T13:00:55.660Z,100.20
2022-12-25T13:03:49.025Z,54.60
2022-12-25T13:06:49.375Z,32.00
2022-12-25T13:09:49.301Z,23.83
2022-12-25T13:12:18.115Z,13.35
2022-12-25T13:14:47.975Z,7.55
2022-12-25T13:17:23.193Z,9.57
2022-12-25T13:20:00.282Z,21.50
2022-12-25T13:22:34.767Z,9.20
2022-12-25T13:25:08.994Z,25.20
2022-12-25T13:27:36.865Z,63.83
2022-12-25T13:30:20.975Z,123.80
2022-12-25T13:32:49.408Z,83.53
2022-12-25T13:35:18.842Z,66.15
2022-12-25T13:37:47.956Z,34.50
2022-12-25T13:40:28.134Z,29.75
2022-12-25T13:43:02.093Z,18.63
2022-12-25T13:45:31.387Z,15.23
2022-12-25T13:48:16.206Z,45.92
2022-12-25T13:50:48.578Z,85.00
2022-12-25T13:53:18.436Z,56.22
2022-12-25T13:55:53.179Z,85.32
2022-12-25T13:58:30.858Z,47.80
2022-12-25T14:01:01.860Z,45.80
2022-12-25T14:03:37.413Z,33.05
2022-12-25T14:06:25.346Z,29.45
2022-12-25T14:08:56.299Z,31.45
2022-12-25T14:11:31.472Z,78.82
2022-12-25T14:14:16.068Z,83.97
2022-12-25T14:16:48.835Z,68.80
2022-12-25T14:19:34.446Z,78.78
2022-12-25T14:22:21.197Z,45.85
2022-12-25T14:24:49.621Z,26.75
2022-12-25T14:27:24.801Z,20.65
2022-12-25T14:29:58.344Z,14.52
2022-12-25T14:32:31.521Z,15.00
2022-12-25T14:35:03.664Z,22.30
2022-12-25T14:37:34.407Z,31.13
2022-12-25T14:40:24.323Z,31.25
2022-12-25T14:43:06.494Z,20.52
2022-12-25T14:45:40.264Z,27.48
2022-12-25T14:48:25.537Z,24.13
2022-12-25T14:51:15.284Z,19.85
2022-12-25T14:54:06.490Z,16.35
2022-12-25T14:56:47.312Z,13.48
2022-12-25T14:59:26.460Z,17.75
2022-12-25T15:02:05.039Z,25.80
2022-12-25T15:04:34.341Z,30.25
2022-12-25T15:07:09.672Z,30.67
2022-12-25T15:09:37.977Z,23.48
2022-12-25T15:12:07.227Z,17.80
2022-12-25T15:14:38.849Z,17.10
2022-12-25T15:17:07.325Z,15.05
2022-12-25T15:19:41.448Z,13.23
2022-12-25T15:22:13.342Z,28.30
2022-12-25T15:24:41.064Z,40.08
2022-12-25T15:27:18.397Z,53.05
2022-12-25T15:30:09.333Z,60.20
2022-12-25T15:32:33.666Z,58.50
2022-12-25T15:35:01.261Z,56.17
2022-12-25T15:37:31.615Z,57.15
2022-12-25T15:40:00.088Z,46.58
2022-12-25T15:42:27.886Z,48.90
2022-12-25T15:44:55.564Z,186.63
2022-12-25T15:47:23.294Z,333.48
2022-12-25T15:49:50.980Z,377.40
2022-12-25T15:52:18.781Z,250.38
2022-12-25T15:54:46.792Z,306.30
2022-12-25T15:57:21.076Z,287.55
2022-12-25T15:59:48.888Z,227.93
2022-12-25T16:02:20.807Z,255.23
2022-12-25T16:04:51.191Z,192.02
2022-12-25T16:07:25.114Z,109.85
2022-12-25T16:09:52.780Z,74.78
2022-12-25T16:12:20.675Z,100.32
2022-12-25T16:14:48.384Z,94.22
2022-12-25T16:17:16.250Z,109.70
2022-12-25T16:19:44.947Z,99.55
2022-12-25T16:22:18.551Z,122.72
2022-12-25T16:24:50.829Z,105.75
2022-12-25T16:27:18.647Z,128.35
2022-12-25T16:29:46.300Z,129.18
2022-12-25T16:32:15.655Z,123.45
2022-12-25T16:34:43.792Z,92.38
2022-12-25T16:37:11.459Z,72.10
2022-12-25T16:39:39.505Z,101.75
2022-12-25T16:42:09.146Z,107.57
2022-12-25T16:44:46.337Z,82.65
2022-12-25T16:47:16.208Z,58.38
2022-12-25T16:49:45.264Z,45.05
2022-12-25T16:52:14.258Z,35.13
2022-12-25T16:54:42.717Z,25.90
2022-12-25T16:57:14.086Z,24.55
2022-12-25T16:59:43.476Z,21.25
2022-12-25T17:02:20.534Z,18.17
2022-12-25T17:04:48.863Z,20.15
2022-12-25T17:07:18.348Z,21.38
2022-12-25T17:09:50.134Z,21.25
2022-12-25T17:12:18.089Z,20.67
2022-12-25T17:14:45.815Z,16.08
2022-12-25T17:17:13.572Z,12.07
2022-12-25T17:19:41.927Z,15.93
2022-12-25T17:22:09.703Z,17.13
2022-12-25T17:24:40.126Z,17.30
2022-12-25T17:27:09.358Z,16.15
2022-12-25T17:29:39.916Z,28.42
2022-12-25T17:32:08.946Z,19.77
2022-12-25T17:34:37.959Z,15.85
2022-12-25T17:37:06.096Z,25.00
2022-12-25T17:39:33.805Z,23.40
2022-12-25T17:42:01.481Z,16.52
2022-12-25T17:44:29.181Z,19.90
2022-12-25T17:46:57.154Z,19.23
2022-12-25T17:49:25.944Z,17.20
2022-12-25T17:52:03.456Z,16.33
2022-12-25T17:54:33.554Z,22.63
2022-12-25T17:57:01.700Z,12.73
2022-12-25T17:59:30.443Z,13.07
2022-12-25T18:01:59.067Z,14.93
2022-12-25T18:04:27.597Z,14.50
2022-12-25T18:06:56.324Z,12.38
2022-12-25T18:09:24.956Z,11.32
2022-12-25T18:11:53.806Z,11.65
2022-12-25T18:14:22.881Z,20.17
2022-12-25T18:16:52.747Z,54.38
2022-12-25T18:19:21.380Z,55.10
2022-12-25T18:21:51.844Z,38.38
2022-12-25T18:24:20.586Z,20.65
2022-12-25T18:26:51.053Z,20.98
2022-12-25T18:29:19.949Z,16.33
2022-12-25T18:31:53.774Z,16.30
2022-12-25T18:34:23.605Z,41.05
2022-12-25T18:36:51.384Z,43.72
2022-12-25T18:39:19.475Z,32.42
2022-12-25T18:42:07.552Z,30.08
2022-12-25T18:44:35.399Z,18.90
2022-12-25T18:47:03.526Z,34.75
2022-12-25T18:49:32.618Z,29.27
2022-12-25T18:52:49.976Z,25.50
2022-12-25T18:54:48.779Z,23.70
2022-12-25T18:57:17.096Z,25.00
2022-12-25T18:59:44.940Z,17.70
2022-12-25T19:02:14.885Z,17.08
2022-12-25T19:04:46.503Z,21.23
2022-12-25T19:09:41.968Z,49.80
2022-12-25T19:12:09.716Z,56.92
2022-12-25T19:14:47.417Z,44.78
2022-12-25T19:17:18.031Z,38.30
2022-12-25T19:19:46.318Z,30.55
2022-12-25T19:22:14.437Z,41.28
2022-12-25T19:24:42.388Z,31.98
2022-12-25T19:27:10.121Z,20.85
2022-12-25T19:29:38.094Z,31.02
2022-12-25T19:32:06.046Z,29.15
2022-12-25T19:34:33.756Z,41.30
2022-12-25T19:37:01.459Z,27.77
2022-12-25T19:39:29.592Z,18.50
2022-12-25T19:41:58.839Z,18.50
2022-12-25T19:44:26.873Z,17.15
2022-12-25T19:46:55.913Z,16.73
2022-12-25T19:49:25.215Z,17.92
2022-12-25T19:51:55.139Z,16.70
2022-12-25T19:54:23.025Z,18.80
2022-12-25T19:56:50.735Z,18.15
2022-12-25T19:59:18.487Z,13.73
2022-12-25T20:01:46.351Z,12.27
2022-12-25T20:04:21.900Z,10.63
2022-12-25T20:06:49.880Z,13.52
2022-12-25T20:09:21.451Z,15.82
2022-12-25T20:11:54.720Z,23.95
2022-12-25T20:14:30.259Z,18.27
2022-12-25T20:16:58.892Z,19.45
2022-12-25T20:19:31.752Z,16.65
2022-12-25T20:22:01.396Z,45.63
2022-12-25T20:24:30.979Z,26.67
2022-12-25T20:26:59.717Z,27.65
2022-12-25T20:29:28.712Z,34.40
2022-12-25T20:31:56.664Z,34.47
2022-12-25T20:34:26.799Z,33.40
2022-12-25T20:36:55.539Z,35.72
2022-12-25T20:39:24.787Z,31.77
2022-12-25T20:41:52.761Z,34.00
2022-12-25T20:44:20.668Z,32.67
2022-12-25T20:46:48.374Z,39.45
2022-12-25T20:49:16.993Z,46.88
2022-12-25T20:51:45.015Z,51.10
2022-12-25T20:54:15.514Z,65.75
2022-12-25T20:56:44.308Z,66.20
2022-12-25T20:59:12.710Z,70.18
2022-12-25T21:01:41.775Z,56.25
2022-12-25T21:04:15.905Z,46.20
2022-12-25T21:06:44.368Z,180.50
2022-12-25T21:09:13.191Z,121.97
2022-12-25T21:11:42.147Z,72.75
2022-12-25T21:14:11.009Z,49.33
2022-12-25T21:16:40.315Z,41.05
2022-12-25T21:19:09.583Z,79.25
2022-12-25T21:21:44.318Z,67.35
2022-12-25T21:24:13.154Z,105.00
2022-12-25T21:26:47.799Z,83.28
2022-12-25T21:29:18.310Z,58.08
2022-12-25T21:32:04.534Z,54.60
2022-12-25T21:34:33.078Z,105.60
2022-12-25T21:37:02.007Z,78.22
2022-12-25T21:39:30.660Z,79.03
2022-12-25T21:42:00.615Z,75.40
2022-12-25T21:44:29.468Z,52.80
2022-12-25T21:46:57.402Z,66.30
2022-12-25T21:49:43.704Z,107.30
2022-12-25T21:52:12.495Z,97.22
2022-12-25T21:54:40.844Z,82.28
2022-12-25T21:57:08.574Z,83.00
2022-12-25T21:59:36.802Z,84.28
2022-12-25T22:02:11.776Z,66.47
2022-12-25T22:04:40.539Z,67.63
2022-12-25T22:07:19.617Z,57.88
2022-12-25T22:09:51.784Z,64.57
2022-12-25T22:12:40.801Z,60.75
2022-12-25T22:15:10.727Z,51.75
2022-12-25T22:18:01.714Z,46.10
2022-12-25T22:20:38.183Z,40.90
2022-12-25T22:23:06.207Z,32.88
2022-12-25T22:25:34.077Z,26.33
2022-12-25T22:28:01.766Z,90.22
2022-12-25T22:30:30.202Z,58.25
2022-12-25T22:32:58.371Z,42.58
2022-12-25T22:35:26.221Z,37.78
2022-12-25T22:37:54.461Z,61.38
2022-12-25T22:40:22.358Z,47.35
2022-12-25T22:42:53.972Z,56.58
2022-12-25T22:45:22.181Z,50.75
2022-12-25T22:47:50.370Z,49.08
2022-12-25T22:50:18.904Z,33.53
2022-12-25T22:52:47.308Z,22.38
2022-12-25T22:55:19.463Z,39.00
2022-12-25T22:57:47.281Z,54.92
2022-12-25T23:00:15.387Z,43.42
2022-12-25T23:02:43.497Z,48.33
2022-12-25T23:05:11.600Z,47.47
2022-12-25T23:07:39.336Z,34.17
2022-12-25T23:10:08.425Z,33.33
2022-12-25T23:12:54.652Z,28.33
2022-12-25T23:15:22.752Z,21.77
2022-12-25T23:18:08.919Z,16.05
2022-12-25T23:20:56.197Z,12.60
2022-12-25T23:23:42.784Z,14.75
2022-12-25T23:26:11.091Z,38.63
2022-12-25T23:29:00.285Z,40.72
2022-12-25T23:31:36.695Z,35.70
2022-12-25T23:34:07.094Z,28.15
2022-12-25T23:36:35.365Z,35.00
2022-12-25T23:39:09.774Z,33.60
2022-12-25T23:41:41.526Z,25.23
2022-12-25T23:46:40.700Z,31.92
2022-12-25T23:49:10.352Z,34.58
2022-12-25T23:51:45.926Z,54.65
2022-12-25T23:54:18.128Z,33.28
2022-12-25T23:56:46.510Z,31.75
2022-12-25T23:59:15.499Z,36.72
